createdAt,value
2024-03-07T00:04:07.789Z,28.88
2024-03-07T00:09:11.072Z,27.67
2024-03-07T00:14:13.771Z,27.02
2024-03-07T00:19:16.400Z,23.58
2024-03-07T00:24:20.083Z,27.17
2024-03-07T00:29:24.302Z,27.73
2024-03-07T00:34:27.182Z,28.20
2024-03-07T00:39:36.094Z,28.00
2024-03-07T00:44:41.959Z,24.60
2024-03-07T00:49:44.835Z,26.52
2024-03-07T00:54:47.878Z,25.38
2024-03-07T01:00:15.527Z,24.77
2024-03-07T01:05:19.116Z,27.88
2024-03-07T01:10:21.927Z,26.70
2024-03-07T01:15:25.056Z,27.27
2024-03-07T01:20:30.440Z,28.58
2024-03-07T01:25:37.407Z,27.43
2024-03-07T01:30:42.107Z,24.35
2024-03-07T01:35:45.206Z,24.23
2024-03-07T01:40:47.932Z,24.00
2024-03-07T01:45:54.915Z,26.15
2024-03-07T01:50:58.933Z,29.23
2024-03-07T01:56:03.791Z,26.17
2024-03-07T02:01:08.178Z,29.75
2024-03-07T02:06:11.530Z,28.15
2024-03-07T02:16:17.970Z,23.65
2024-03-07T02:21:21.510Z,30.25
2024-03-07T02:26:25.024Z,25.57
2024-03-07T02:31:36.245Z,28.35
2024-03-07T02:36:39.006Z,27.98
2024-03-07T02:41:42.288Z,33.47
2024-03-07T02:46:45.294Z,27.80
2024-03-07T02:51:48.847Z,32.47
2024-03-07T02:56:53.427Z,33.45
2024-03-07T03:06:59.394Z,27.30
2024-03-07T03:12:02.238Z,31.42
2024-03-07T03:17:06.221Z,31.35
2024-03-07T03:22:09.772Z,34.75
2024-03-07T03:27:14.148Z,34.88
2024-03-07T03:32:35.391Z,28.63
2024-03-07T03:37:38.386Z,35.17
2024-03-07T03:42:42.097Z,34.30
2024-03-07T03:47:53.523Z,37.88
2024-03-07T03:52:56.275Z,34.45
2024-03-07T03:57:59.103Z,33.17
2024-03-07T04:03:02.150Z,35.85
2024-03-07T04:08:06.552Z,30.88
2024-03-07T04:13:09.679Z,31.67
2024-03-07T04:18:13.015Z,32.90
2024-03-07T04:23:18.367Z,34.63
2024-03-07T04:28:39.474Z,32.50
2024-03-07T04:33:42.299Z,33.00
2024-03-07T04:38:46.653Z,38.25
2024-03-07T04:43:50.421Z,29.98
2024-03-07T04:48:54.483Z,34.13
2024-03-07T04:53:57.453Z,34.88
2024-03-07T04:59:03.329Z,37.55
2024-03-07T05:04:07.175Z,37.97
2024-03-07T05:09:27.746Z,36.87
2024-03-07T05:14:31.590Z,34.50
2024-03-07T05:19:34.854Z,37.50
2024-03-07T05:24:38.693Z,36.92
2024-03-07T05:29:43.267Z,40.60
2024-03-07T05:34:46.170Z,37.92
2024-03-07T05:39:50.557Z,42.20
2024-03-07T05:44:55.530Z,37.50
2024-03-07T05:50:01.176Z,41.08
2024-03-07T05:55:07.745Z,41.63
2024-03-07T06:00:12.687Z,35.15
2024-03-07T06:05:17.416Z,44.80
2024-03-07T06:10:25.289Z,34.78
2024-03-07T06:15:28.889Z,37.50
2024-03-07T06:20:31.651Z,38.45
2024-03-07T06:25:38.805Z,47.07
2024-03-07T06:30:46.113Z,37.72
2024-03-07T06:35:53.768Z,39.65
2024-03-07T06:40:57.016Z,46.08
2024-03-07T06:46:00.882Z,48.13
2024-03-07T06:51:04.084Z,49.58
2024-03-07T06:56:07.745Z,45.00
2024-03-07T07:01:13.503Z,47.57
2024-03-07T07:06:16.606Z,46.85
2024-03-07T07:11:19.361Z,42.40
2024-03-07T07:16:22.923Z,47.40
2024-03-07T07:21:25.622Z,52.33
2024-03-07T07:26:28.325Z,49.65
2024-03-07T07:31:31.092Z,60.40
2024-03-07T07:36:33.621Z,64.05
2024-03-07T07:41:36.919Z,63.95
2024-03-07T07:46:41.721Z,62.63
2024-03-07T07:51:44.498Z,66.40
2024-03-07T07:57:06.226Z,70.78
2024-03-07T08:02:08.941Z,83.20
2024-03-07T08:07:16.971Z,68.45
2024-03-07T08:12:20.009Z,75.65
2024-03-07T08:17:26.534Z,74.93
2024-03-07T08:22:32.168Z,77.03
2024-03-07T08:27:34.828Z,73.97
2024-03-07T08:32:38.640Z,76.18
2024-03-07T08:37:42.846Z,71.60
2024-03-07T08:42:46.055Z,65.20
2024-03-07T08:47:54.392Z,57.37
2024-03-07T08:52:57.360Z,50.03
2024-03-07T08:58:01.605Z,47.92
2024-03-07T09:03:05.131Z,33.80
2024-03-07T09:08:09.693Z,28.67
2024-03-07T09:13:15.135Z,22.67
2024-03-07T09:18:17.870Z,22.33
2024-03-07T09:23:20.674Z,24.17
2024-03-07T09:28:25.999Z,20.63
2024-03-07T09:33:29.470Z,21.73
2024-03-07T09:38:32.601Z,20.30
2024-03-07T09:43:35.969Z,19.33
2024-03-07T09:48:38.579Z,18.92
2024-03-07T09:53:42.723Z,19.52
2024-03-07T09:58:48.702Z,18.88
2024-03-07T10:03:55.497Z,20.52
2024-03-07T10:08:59.903Z,13.88
2024-03-07T10:19:07.200Z,16.33
2024-03-07T10:24:12.178Z,20.85
2024-03-07T10:29:14.956Z,18.20
2024-03-07T10:34:17.713Z,18.75
2024-03-07T10:39:22.955Z,19.85
2024-03-07T10:44:29.838Z,17.10
2024-03-07T10:49:35.434Z,16.42
2024-03-07T10:54:50.316Z,17.95
2024-03-07T10:59:59.265Z,20.00
2024-03-07T11:05:02.631Z,19.73
2024-03-07T11:10:12.875Z,18.75
2024-03-07T11:15:16.360Z,17.20
2024-03-07T11:20:22.336Z,21.95
2024-03-07T11:25:28.468Z,21.30
2024-03-07T11:30:33.794Z,18.05
2024-03-07T11:35:39.223Z,17.38
2024-03-07T11:40:44.836Z,17.08
2024-03-07T11:45:53.484Z,18.90
2024-03-07T11:50:57.987Z,17.75
2024-03-07T11:56:01.023Z,16.58
2024-03-07T12:01:06.580Z,17.67
2024-03-07T12:06:14.141Z,16.10
2024-03-07T12:11:17.735Z,17.15
2024-03-07T12:16:20.743Z,16.80
2024-03-07T12:21:23.649Z,18.98
2024-03-07T12:26:27.112Z,19.05
2024-03-07T12:31:33.028Z,16.40
2024-03-07T12:36:49.077Z,17.85
2024-03-07T12:41:55.323Z,18.88
2024-03-07T12:46:58.311Z,17.48
2024-03-07T12:52:01.257Z,16.10
2024-03-07T12:57:07.169Z,15.80
2024-03-07T13:02:16.160Z,19.67
2024-03-07T13:07:19.017Z,16.58
2024-03-07T13:12:22.191Z,17.38
2024-03-07T13:17:25.867Z,16.73
2024-03-07T13:22:28.761Z,18.73
2024-03-07T13:27:31.931Z,17.00
2024-03-07T13:32:36.633Z,16.50
2024-03-07T13:37:39.616Z,15.40
2024-03-07T13:42:42.291Z,16.42
2024-03-07T13:47:45.534Z,17.48
2024-03-07T13:53:05.817Z,17.50
2024-03-07T13:58:15.549Z,16.25
2024-03-07T14:03:48.475Z,16.20
2024-03-07T14:09:12.792Z,15.90
2024-03-07T14:14:44.652Z,14.55
2024-03-07T14:20:20.336Z,16.25
2024-03-07T14:25:42.123Z,15.57
2024-03-07T14:30:57.274Z,19.65
2024-03-07T14:36:05.439Z,15.50
2024-03-07T14:41:12.451Z,15.77
2024-03-07T14:46:17.188Z,15.73
2024-03-07T14:51:22.072Z,17.77
2024-03-07T14:56:44.240Z,16.02
2024-03-07T15:01:47.893Z,16.35
2024-03-07T15:06:53.804Z,16.77
2024-03-07T15:11:56.832Z,16.95
2024-03-07T15:16:59.527Z,12.35
2024-03-07T15:22:04.369Z,17.25
2024-03-07T15:27:07.488Z,16.38
2024-03-07T15:32:11.369Z,17.42
2024-03-07T15:37:15.838Z,18.08
2024-03-07T15:42:20.179Z,18.17
2024-03-07T15:47:22.918Z,17.27
2024-03-07T15:52:25.859Z,17.92
2024-03-07T15:57:28.590Z,17.40
2024-03-07T16:02:31.972Z,16.27
2024-03-07T16:07:34.660Z,19.08
2024-03-07T16:12:37.449Z,17.20
2024-03-07T16:17:41.300Z,19.58
2024-03-07T16:22:49.931Z,19.52
2024-03-07T16:27:54.666Z,18.08
2024-03-07T16:33:03.695Z,19.33
2024-03-07T16:38:10.652Z,18.33
2024-03-07T16:43:14.871Z,19.73
2024-03-07T16:48:18.155Z,18.92
2024-03-07T16:53:20.960Z,18.77
2024-03-07T16:58:23.802Z,19.40
2024-03-07T17:03:26.541Z,19.70
2024-03-07T17:08:29.249Z,17.45
2024-03-07T17:13:32.124Z,19.90
2024-03-07T17:18:37.575Z,19.42
2024-03-07T17:23:42.626Z,19.27
2024-03-07T17:28:46.700Z,16.88
2024-03-07T17:33:54.633Z,17.58
2024-03-07T17:38:57.646Z,16.05
2024-03-07T17:44:00.548Z,19.25
2024-03-07T17:49:05.029Z,18.98
2024-03-07T17:54:08.193Z,19.65
2024-03-07T17:59:12.059Z,19.08
2024-03-07T18:04:16.324Z,19.23
2024-03-07T18:09:29.191Z,19.60
2024-03-07T18:14:34.874Z,19.10
2024-03-07T18:19:41.602Z,18.60
2024-03-07T18:24:46.330Z,20.98
2024-03-07T18:29:50.999Z,19.33
2024-03-07T18:34:55.035Z,21.90
2024-03-07T18:39:59.195Z,19.95
2024-03-07T18:50:16.035Z,19.40
2024-03-07T18:55:21.600Z,21.97
2024-03-07T19:00:33.754Z,19.77
2024-03-07T19:05:45.509Z,23.60
2024-03-07T19:10:48.947Z,19.27
2024-03-07T19:15:53.836Z,23.63
2024-03-07T19:20:56.592Z,20.35
2024-03-07T19:26:04.630Z,18.92
2024-03-07T19:31:15.109Z,18.55
2024-03-07T19:36:17.940Z,20.40
2024-03-07T19:41:24.076Z,19.15
2024-03-07T19:46:29.368Z,19.05
2024-03-07T19:51:31.914Z,18.23
2024-03-07T19:56:37.308Z,21.25
2024-03-07T20:01:41.759Z,21.90
2024-03-07T20:06:46.682Z,22.45
2024-03-07T20:11:51.323Z,22.52
2024-03-07T20:16:56.010Z,21.13
2024-03-07T20:22:17.954Z,21.20
2024-03-07T20:27:21.783Z,22.85
2024-03-07T20:32:25.221Z,21.87
2024-03-07T20:37:27.891Z,23.05
2024-03-07T20:42:31.119Z,23.55
2024-03-07T20:47:33.912Z,23.40
2024-03-07T20:52:46.622Z,20.48
2024-03-07T20:57:54.964Z,22.35
2024-03-07T21:02:59.682Z,18.08
2024-03-07T21:08:03.339Z,23.75
2024-03-07T21:13:06.518Z,26.07
2024-03-07T21:18:31.644Z,23.38
2024-03-07T21:23:35.057Z,21.40
2024-03-07T21:28:37.915Z,22.60
2024-03-07T21:33:40.928Z,24.33
2024-03-07T21:38:45.078Z,25.73
2024-03-07T21:43:48.290Z,22.30
2024-03-07T21:48:52.442Z,25.80
2024-03-07T21:53:56.993Z,24.48
2024-03-07T21:59:06.107Z,17.67
2024-03-07T22:04:13.259Z,25.45
2024-03-07T22:09:15.971Z,17.42
2024-03-07T22:14:23.206Z,25.80
2024-03-07T22:19:26.031Z,26.95
2024-03-07T22:24:28.750Z,29.70
2024-03-07T22:29:31.642Z,26.88
2024-03-07T22:34:34.401Z,29.27
2024-03-07T22:39:37.255Z,25.90
2024-03-07T22:44:40.468Z,22.02
2024-03-07T22:49:43.286Z,27.17
2024-03-07T22:54:48.209Z,25.83
2024-03-07T22:59:51.965Z,22.77
2024-03-07T23:04:54.651Z,24.02
2024-03-07T23:09:59.858Z,24.00
2024-03-07T23:15:02.588Z,27.25
2024-03-07T23:20:15.380Z,23.83
2024-03-07T23:25:20.487Z,27.95
2024-03-07T23:30:25.338Z,27.55
2024-03-07T23:35:28.437Z,27.27
2024-03-07T23:40:31.236Z,26.85
2024-03-07T23:45:33.965Z,20.58
2024-03-07T23:50:36.927Z,25.70
2024-03-07T23:55:39.559Z,25.48
